Terminal Aerodrome Forecast
Issued by NWS

Home | Current Version | Previous Version | Text Only | Print | Product List | Glossary On
Versions: 1 2 3 4 5 6 7 8 9 10 11 12 13 14 15 16
000
FTUS43 KDMX 240520
TAFMCW
TAF
KMCW 240520Z 2406/2506 12011KT P6SM VCSH SCT060 BKN120
     FM240900 06013KT 6SM -TSRA BR SCT015 BKN040CB
     FM241100 04012KT 4SM -SHRA BR SCT007 BKN015
     FM241500 02014KT 3SM -SHRA BR BKN007=

USA.gov is the U.S. government's official web portal to all federal, state and local government web resources and services.